sensor_id;sensor_type;location;lat;lon;timestamp;temperature;humidity
12885;DHT22;6510;51.362;7.370;2023-04-03T00:00:11;0.00;99.90
12885;DHT22;6510;51.362;7.370;2023-04-03T00:02:37;0.10;99.90
12885;DHT22;6510;51.362;7.370;2023-04-03T00:05:02;0.20;99.90
12885;DHT22;6510;51.362;7.370;2023-04-03T00:07:28;0.30;99.90
12885;DHT22;6510;51.362;7.370;2023-04-03T00:09:54;0.30;99.90
12885;DHT22;6510;51.362;7.370;2023-04-03T00:12:19;0.20;99.90
12885;DHT22;6510;51.362;7.370;2023-04-03T00:14:45;0.30;99.90
12885;DHT22;6510;51.362;7.370;2023-04-03T00:17:10;0.30;99.90
12885;DHT22;6510;51.362;7.370;2023-04-03T00:19:36;0.40;99.90
12885;DHT22;6510;51.362;7.370;2023-04-03T00:22:02;0.40;99.90
12885;DHT22;6510;51.362;7.370;2023-04-03T00:24:27;0.40;99.90
12885;DHT22;6510;51.362;7.370;2023-04-03T00:26:53;0.40;99.90
12885;DHT22;6510;51.362;7.370;2023-04-03T00:29:18;0.40;99.90
12885;DHT22;6510;51.362;7.370;2023-04-03T00:31:44;0.50;99.90
12885;DHT22;6510;51.362;7.370;2023-04-03T00:34:10;0.50;99.90
12885;DHT22;6510;51.362;7.370;2023-04-03T00:36:36;0.40;99.90
12885;DHT22;6510;51.362;7.370;2023-04-03T00:39:02;0.40;99.90
12885;DHT22;6510;51.362;7.370;2023-04-03T00:41:28;0.30;99.90
12885;DHT22;6510;51.362;7.370;2023-04-03T00:43:53;0.40;99.90
12885;DHT22;6510;51.362;7.370;2023-04-03T00:46:19;0.30;99.90
12885;DHT22;6510;51.362;7.370;2023-04-03T00:48:46;0.30;99.90
12885;DHT22;6510;51.362;7.370;2023-04-03T00:51:30;0.30;99.90
12885;DHT22;6510;51.362;7.370;2023-04-03T00:54:02;0.20;99.90
12885;DHT22;6510;51.362;7.370;2023-04-03T00:56:30;0.20;99.90
12885;DHT22;6510;51.362;7.370;2023-04-03T00:59:12;0.10;99.90
12885;DHT22;6510;51.362;7.370;2023-04-03T01:01:39;0.10;99.90
12885;DHT22;6510;51.362;7.370;2023-04-03T01:04:05;0.10;99.90
12885;DHT22;6510;51.362;7.370;2023-04-03T01:06:36;0.20;99.90
12885;DHT22;6510;51.362;7.370;2023-04-03T01:09:03;0.20;99.90
12885;DHT22;6510;51.362;7.370;2023-04-03T01:11:29;0.20;99.90
12885;DHT22;6510;51.362;7.370;2023-04-03T01:13:55;0.10;99.90
12885;DHT22;6510;51.362;7.370;2023-04-03T01:16:21;0.10;99.90
12885;DHT22;6510;51.362;7.370;2023-04-03T01:18:47;0.10;99.90
12885;DHT22;6510;51.362;7.370;2023-04-03T01:21:18;0.00;99.90
12885;DHT22;6510;51.362;7.370;2023-04-03T01:24:00;0.00;99.90
12885;DHT22;6510;51.362;7.370;2023-04-03T01:26:29;0.00;99.90
12885;DHT22;6510;51.362;7.370;2023-04-03T01:28:55;-0.10;99.90
12885;DHT22;6510;51.362;7.370;2023-04-03T01:34:10;-0.10;99.90
12885;DHT22;6510;51.362;7.370;2023-04-03T01:36:36;-0.10;99.90
12885;DHT22;6510;51.362;7.370;2023-04-03T01:39:02;-0.20;99.90
12885;DHT22;6510;51.362;7.370;2023-04-03T01:41:28;-0.20;99.90
12885;DHT22;6510;51.362;7.370;2023-04-03T01:43:54;-0.20;99.90
12885;DHT22;6510;51.362;7.370;2023-04-03T01:46:20;-0.20;99.90
12885;DHT22;6510;51.362;7.370;2023-04-03T01:48:46;-0.20;99.90
12885;DHT22;6510;51.362;7.370;2023-04-03T01:51:12;-0.30;99.90
12885;DHT22;6510;51.362;7.370;2023-04-03T01:53:37;-0.20;99.90
12885;DHT22;6510;51.362;7.370;2023-04-03T01:56:04;-0.30;99.90
12885;DHT22;6510;51.362;7.370;2023-04-03T01:58:30;-0.30;99.90
12885;DHT22;6510;51.362;7.370;2023-04-03T02:00:55;-0.40;99.90
12885;DHT22;6510;51.362;7.370;2023-04-03T02:03:21;-0.40;99.90
12885;DHT22;6510;51.362;7.370;2023-04-03T02:05:47;-0.50;99.90
12885;DHT22;6510;51.362;7.370;2023-04-03T02:08:13;-0.50;99.90
12885;DHT22;6510;51.362;7.370;2023-04-03T02:10:39;-0.50;99.90
12885;DHT22;6510;51.362;7.370;2023-04-03T02:13:05;-0.50;99.90
12885;DHT22;6510;51.362;7.370;2023-04-03T02:15:30;-0.50;99.90
12885;DHT22;6510;51.362;7.370;2023-04-03T02:17:56;-0.50;99.90
12885;DHT22;6510;51.362;7.370;2023-04-03T02:20:22;-0.50;99.90
12885;DHT22;6510;51.362;7.370;2023-04-03T02:22:47;-0.50;99.90
12885;DHT22;6510;51.362;7.370;2023-04-03T02:25:13;-0.50;99.90
12885;DHT22;6510;51.362;7.370;2023-04-03T02:27:39;-0.50;99.90
12885;DHT22;6510;51.362;7.370;2023-04-03T02:30:06;-0.60;99.90
12885;DHT22;6510;51.362;7.370;2023-04-03T02:32:32;-0.60;99.90
12885;DHT22;6510;51.362;7.370;2023-04-03T02:34:57;-0.50;99.90
12885;DHT22;6510;51.362;7.370;2023-04-03T02:37:23;-0.50;99.90
12885;DHT22;6510;51.362;7.370;2023-04-03T02:39:50;-0.50;99.90
12885;DHT22;6510;51.362;7.370;2023-04-03T02:42:15;-0.50;99.90
12885;DHT22;6510;51.362;7.370;2023-04-03T02:44:41;-0.50;99.90
12885;DHT22;6510;51.362;7.370;2023-04-03T02:47:07;-0.50;99.90
12885;DHT22;6510;51.362;7.370;2023-04-03T02:49:32;-0.50;99.90
12885;DHT22;6510;51.362;7.370;2023-04-03T02:51:58;-0.50;99.90
12885;DHT22;6510;51.362;7.370;2023-04-03T02:54:24;-0.50;99.90
12885;DHT22;6510;51.362;7.370;2023-04-03T02:56:53;-0.60;99.90
12885;DHT22;6510;51.362;7.370;2023-04-03T02:59:18;-0.60;99.90
12885;DHT22;6510;51.362;7.370;2023-04-03T03:01:44;-0.70;99.90
12885;DHT22;6510;51.362;7.370;2023-04-03T03:04:10;-0.70;99.90
12885;DHT22;6510;51.362;7.370;2023-04-03T03:06:35;-0.70;99.90
12885;DHT22;6510;51.362;7.370;2023-04-03T03:09:01;-0.60;99.90
12885;DHT22;6510;51.362;7.370;2023-04-03T03:11:27;-0.70;99.90
12885;DHT22;6510;51.362;7.370;2023-04-03T03:13:52;-0.70;99.90
12885;DHT22;6510;51.362;7.370;2023-04-03T03:16:18;-0.70;99.90
12885;DHT22;6510;51.362;7.370;2023-04-03T03:18:44;-0.70;99.90
12885;DHT22;6510;51.362;7.370;2023-04-03T03:21:10;-0.70;99.90
12885;DHT22;6510;51.362;7.370;2023-04-03T03:23:36;-0.70;99.90
12885;DHT22;6510;51.362;7.370;2023-04-03T03:26:05;-0.70;99.90
12885;DHT22;6510;51.362;7.370;2023-04-03T03:28:31;-0.70;99.90
12885;DHT22;6510;51.362;7.370;2023-04-03T03:30:57;-0.80;99.90
12885;DHT22;6510;51.362;7.370;2023-04-03T03:33:23;-0.80;99.90
12885;DHT22;6510;51.362;7.370;2023-04-03T03:35:52;-0.80;99.90
12885;DHT22;6510;51.362;7.370;2023-04-03T03:38:18;-0.80;99.90
12885;DHT22;6510;51.362;7.370;2023-04-03T03:40:44;-0.80;99.90
12885;DHT22;6510;51.362;7.370;2023-04-03T03:43:10;-0.80;99.90
12885;DHT22;6510;51.362;7.370;2023-04-03T03:45:35;-0.80;99.90
12885;DHT22;6510;51.362;7.370;2023-04-03T03:48:02;-0.80;99.90
12885;DHT22;6510;51.362;7.370;2023-04-03T03:50:27;-0.90;99.90
12885;DHT22;6510;51.362;7.370;2023-04-03T03:52:53;-0.80;99.90
12885;DHT22;6510;51.362;7.370;2023-04-03T03:55:19;-0.90;99.90
12885;DHT22;6510;51.362;7.370;2023-04-03T03:57:45;-0.90;99.90
12885;DHT22;6510;51.362;7.370;2023-04-03T04:00:11;-0.90;99.90
12885;DHT22;6510;51.362;7.370;2023-04-03T04:02:36;-0.90;99.90
12885;DHT22;6510;51.362;7.370;2023-04-03T04:05:02;-0.90;99.90
12885;DHT22;6510;51.362;7.370;2023-04-03T04:07:28;-0.90;99.90
12885;DHT22;6510;51.362;7.370;2023-04-03T04:09:54;-0.90;99.90
12885;DHT22;6510;51.362;7.370;2023-04-03T04:12:20;-0.90;99.90
12885;DHT22;6510;51.362;7.370;2023-04-03T04:14:46;-0.90;99.90
12885;DHT22;6510;51.362;7.370;2023-04-03T04:17:15;-1.00;99.90
12885;DHT22;6510;51.362;7.370;2023-04-03T04:19:41;-1.00;99.90
12885;DHT22;6510;51.362;7.370;2023-04-03T04:22:07;-1.00;99.90
12885;DHT22;6510;51.362;7.370;2023-04-03T04:24:32;-1.00;99.90
12885;DHT22;6510;51.362;7.370;2023-04-03T04:26:58;-1.00;99.90
12885;DHT22;6510;51.362;7.370;2023-04-03T04:29:24;-1.00;99.90
12885;DHT22;6510;51.362;7.370;2023-04-03T04:31:52;-1.10;99.90
12885;DHT22;6510;51.362;7.370;2023-04-03T04:34:18;-1.00;99.90
12885;DHT22;6510;51.362;7.370;2023-04-03T04:36:44;-1.00;99.90
12885;DHT22;6510;51.362;7.370;2023-04-03T04:39:09;-1.00;99.90
12885;DHT22;6510;51.362;7.370;2023-04-03T04:41:35;-1.10;99.90
12885;DHT22;6510;51.362;7.370;2023-04-03T04:44:01;-1.10;99.90
12885;DHT22;6510;51.362;7.370;2023-04-03T04:46:27;-1.10;99.90
12885;DHT22;6510;51.362;7.370;2023-04-03T04:48:52;-1.10;99.90
12885;DHT22;6510;51.362;7.370;2023-04-03T04:51:18;-1.10;99.90
12885;DHT22;6510;51.362;7.370;2023-04-03T04:53:43;-1.10;99.90
12885;DHT22;6510;51.362;7.370;2023-04-03T04:56:09;-1.10;99.90
12885;DHT22;6510;51.362;7.370;2023-04-03T04:58:35;-1.10;99.90
12885;DHT22;6510;51.362;7.370;2023-04-03T05:01:06;-1.10;99.90
12885;DHT22;6510;51.362;7.370;2023-04-03T05:03:32;-1.10;99.90
12885;DHT22;6510;51.362;7.370;2023-04-03T05:05:58;-1.10;99.90
12885;DHT22;6510;51.362;7.370;2023-04-03T05:08:24;-1.10;99.90
12885;DHT22;6510;51.362;7.370;2023-04-03T05:10:50;-1.10;99.90
12885;DHT22;6510;51.362;7.370;2023-04-03T05:13:15;-1.10;99.90
12885;DHT22;6510;51.362;7.370;2023-04-03T05:15:41;-1.10;99.90
12885;DHT22;6510;51.362;7.370;2023-04-03T05:18:07;-1.10;99.90
12885;DHT22;6510;51.362;7.370;2023-04-03T05:20:34;-1.10;99.90
12885;DHT22;6510;51.362;7.370;2023-04-03T05:23:01;-1.10;99.90
12885;DHT22;6510;51.362;7.370;2023-04-03T05:25:27;-1.10;99.90
12885;DHT22;6510;51.362;7.370;2023-04-03T05:27:55;-1.10;99.90
12885;DHT22;6510;51.362;7.370;2023-04-03T05:30:21;-1.10;99.90
12885;DHT22;6510;51.362;7.370;2023-04-03T05:32:47;-1.10;99.90
12885;DHT22;6510;51.362;7.370;2023-04-03T05:35:13;-1.10;99.90
12885;DHT22;6510;51.362;7.370;2023-04-03T05:37:39;-1.00;99.90
12885;DHT22;6510;51.362;7.370;2023-04-03T05:40:05;-0.80;99.90
12885;DHT22;6510;51.362;7.370;2023-04-03T05:42:31;-0.80;99.90
12885;DHT22;6510;51.362;7.370;2023-04-03T05:44:57;-0.90;99.90
12885;DHT22;6510;51.362;7.370;2023-04-03T05:47:22;-0.80;99.90
12885;DHT22;6510;51.362;7.370;2023-04-03T05:49:49;-0.80;99.90
12885;DHT22;6510;51.362;7.370;2023-04-03T05:52:42;-0.70;99.90
12885;DHT22;6510;51.362;7.370;2023-04-03T05:55:09;-0.70;99.90
12885;DHT22;6510;51.362;7.370;2023-04-03T05:57:35;-0.60;99.90
12885;DHT22;6510;51.362;7.370;2023-04-03T06:00:02;-0.60;99.90
12885;DHT22;6510;51.362;7.370;2023-04-03T06:02:28;-0.60;99.90
12885;DHT22;6510;51.362;7.370;2023-04-03T06:04:54;-0.50;99.90
12885;DHT22;6510;51.362;7.370;2023-04-03T06:07:27;-0.50;99.90
12885;DHT22;6510;51.362;7.370;2023-04-03T06:09:57;-0.40;99.90
12885;DHT22;6510;51.362;7.370;2023-04-03T06:12:26;-0.30;99.90
12885;DHT22;6510;51.362;7.370;2023-04-03T06:14:57;-0.30;99.90
12885;DHT22;6510;51.362;7.370;2023-04-03T06:17:23;-0.20;99.90
12885;DHT22;6510;51.362;7.370;2023-04-03T06:19:49;-0.10;99.90
12885;DHT22;6510;51.362;7.370;2023-04-03T06:22:15;-0.10;99.90
12885;DHT22;6510;51.362;7.370;2023-04-03T06:24:41;0.50;99.90
12885;DHT22;6510;51.362;7.370;2023-04-03T06:27:07;1.70;99.90
12885;DHT22;6510;51.362;7.370;2023-04-03T06:29:33;3.40;99.90
12885;DHT22;6510;51.362;7.370;2023-04-03T06:31:58;3.60;99.90
12885;DHT22;6510;51.362;7.370;2023-04-03T06:34:24;4.00;99.90
12885;DHT22;6510;51.362;7.370;2023-04-03T06:36:50;4.40;99.90
12885;DHT22;6510;51.362;7.370;2023-04-03T06:39:18;4.70;99.90
12885;DHT22;6510;51.362;7.370;2023-04-03T06:41:46;5.60;99.90
12885;DHT22;6510;51.362;7.370;2023-04-03T06:44:12;7.00;99.90
12885;DHT22;6510;51.362;7.370;2023-04-03T06:46:41;6.50;99.90
12885;DHT22;6510;51.362;7.370;2023-04-03T06:49:09;5.60;99.90
12885;DHT22;6510;51.362;7.370;2023-04-03T06:51:35;5.80;99.90
12885;DHT22;6510;51.362;7.370;2023-04-03T06:54:02;6.50;99.90
12885;DHT22;6510;51.362;7.370;2023-04-03T06:56:28;5.30;99.90
12885;DHT22;6510;51.362;7.370;2023-04-03T06:58:54;5.30;99.90
12885;DHT22;6510;51.362;7.370;2023-04-03T07:01:24;6.00;99.90
12885;DHT22;6510;51.362;7.370;2023-04-03T07:03:52;5.30;99.90
12885;DHT22;6510;51.362;7.370;2023-04-03T07:06:20;5.40;99.90
12885;DHT22;6510;51.362;7.370;2023-04-03T07:08:46;4.80;99.90
12885;DHT22;6510;51.362;7.370;2023-04-03T07:11:13;4.40;99.90
12885;DHT22;6510;51.362;7.370;2023-04-03T07:13:40;5.80;99.90
12885;DHT22;6510;51.362;7.370;2023-04-03T07:16:06;6.80;99.90
12885;DHT22;6510;51.362;7.370;2023-04-03T07:18:33;7.90;99.90
12885;DHT22;6510;51.362;7.370;2023-04-03T07:20:58;7.60;99.90
12885;DHT22;6510;51.362;7.370;2023-04-03T07:23:24;8.30;99.90
12885;DHT22;6510;51.362;7.370;2023-04-03T07:25:51;7.80;99.90
12885;DHT22;6510;51.362;7.370;2023-04-03T07:28:18;8.30;99.90
12885;DHT22;6510;51.362;7.370;2023-04-03T07:30:48;8.80;99.90
12885;DHT22;6510;51.362;7.370;2023-04-03T07:33:15;9.80;99.90
12885;DHT22;6510;51.362;7.370;2023-04-03T07:35:41;9.00;99.90
12885;DHT22;6510;51.362;7.370;2023-04-03T07:38:08;9.30;99.90
12885;DHT22;6510;51.362;7.370;2023-04-03T07:40:34;8.90;99.90
12885;DHT22;6510;51.362;7.370;2023-04-03T07:43:00;9.00;99.90
12885;DHT22;6510;51.362;7.370;2023-04-03T07:45:26;9.20;99.90
12885;DHT22;6510;51.362;7.370;2023-04-03T07:47:52;10.00;99.90
12885;DHT22;6510;51.362;7.370;2023-04-03T07:50:18;10.40;99.90
12885;DHT22;6510;51.362;7.370;2023-04-03T07:52:45;9.90;99.90
12885;DHT22;6510;51.362;7.370;2023-04-03T07:55:12;9.70;99.90
12885;DHT22;6510;51.362;7.370;2023-04-03T07:57:40;10.10;99.90
12885;DHT22;6510;51.362;7.370;2023-04-03T08:00:07;10.70;99.90
12885;DHT22;6510;51.362;7.370;2023-04-03T08:02:34;10.30;99.90
12885;DHT22;6510;51.362;7.370;2023-04-03T08:05:00;10.30;99.90
12885;DHT22;6510;51.362;7.370;2023-04-03T08:07:26;9.50;99.90
12885;DHT22;6510;51.362;7.370;2023-04-03T08:09:52;9.80;99.90
12885;DHT22;6510;51.362;7.370;2023-04-03T08:12:18;9.60;99.90
12885;DHT22;6510;51.362;7.370;2023-04-03T08:14:43;10.60;99.90
12885;DHT22;6510;51.362;7.370;2023-04-03T08:17:09;11.70;99.90
12885;DHT22;6510;51.362;7.370;2023-04-03T08:19:38;11.60;99.90
12885;DHT22;6510;51.362;7.370;2023-04-03T08:22:04;11.40;99.90
12885;DHT22;6510;51.362;7.370;2023-04-03T08:24:31;10.90;99.90
12885;DHT22;6510;51.362;7.370;2023-04-03T08:26:57;11.30;99.90
12885;DHT22;6510;51.362;7.370;2023-04-03T08:29:23;11.60;99.90
12885;DHT22;6510;51.362;7.370;2023-04-03T08:31:49;10.90;99.90
12885;DHT22;6510;51.362;7.370;2023-04-03T08:34:16;10.90;99.90
12885;DHT22;6510;51.362;7.370;2023-04-03T08:36:42;10.60;99.90
12885;DHT22;6510;51.362;7.370;2023-04-03T08:39:08;9.90;99.90
12885;DHT22;6510;51.362;7.370;2023-04-03T08:41:45;11.00;99.90
12885;DHT22;6510;51.362;7.370;2023-04-03T08:47:24;10.80;99.90
12885;DHT22;6510;51.362;7.370;2023-04-03T08:49:59;11.90;99.90
12885;DHT22;6510;51.362;7.370;2023-04-03T08:52:45;12.20;99.90
12885;DHT22;6510;51.362;7.370;2023-04-03T08:56:02;11.90;99.90
12885;DHT22;6510;51.362;7.370;2023-04-03T08:58:04;11.30;99.90
12885;DHT22;6510;51.362;7.370;2023-04-03T09:00:41;11.80;99.90
12885;DHT22;6510;51.362;7.370;2023-04-03T09:03:13;11.70;99.90
12885;DHT22;6510;51.362;7.370;2023-04-03T09:06:04;10.10;99.90
12885;DHT22;6510;51.362;7.370;2023-04-03T09:11:26;10.60;99.90
12885;DHT22;6510;51.362;7.370;2023-04-03T09:14:12;11.80;99.90
12885;DHT22;6510;51.362;7.370;2023-04-03T09:16:54;13.50;99.90
12885;DHT22;6510;51.362;7.370;2023-04-03T09:21:57;12.90;99.90
12885;DHT22;6510;51.362;7.370;2023-04-03T09:24:24;11.50;99.90
12885;DHT22;6510;51.362;7.370;2023-04-03T09:29:20;11.00;99.90
12885;DHT22;6510;51.362;7.370;2023-04-03T09:32:17;11.60;99.90
12885;DHT22;6510;51.362;7.370;2023-04-03T09:34:39;13.30;99.90
12885;DHT22;6510;51.362;7.370;2023-04-03T09:37:07;13.20;99.90
12885;DHT22;6510;51.362;7.370;2023-04-03T09:39:52;12.80;99.90
12885;DHT22;6510;51.362;7.370;2023-04-03T09:42:25;13.10;99.90
12885;DHT22;6510;51.362;7.370;2023-04-03T09:45:03;13.80;99.90
12885;DHT22;6510;51.362;7.370;2023-04-03T09:47:34;13.70;99.90
12885;DHT22;6510;51.362;7.370;2023-04-03T09:52:48;12.70;99.90
12885;DHT22;6510;51.362;7.370;2023-04-03T09:55:19;15.00;99.90
12885;DHT22;6510;51.362;7.370;2023-04-03T09:58:02;13.70;99.90
12885;DHT22;6510;51.362;7.370;2023-04-03T10:00:35;13.80;99.90
12885;DHT22;6510;51.362;7.370;2023-04-03T10:03:01;13.60;99.90
12885;DHT22;6510;51.362;7.370;2023-04-03T10:05:39;14.50;99.90
12885;DHT22;6510;51.362;7.370;2023-04-03T10:08:38;13.10;99.90
12885;DHT22;6510;51.362;7.370;2023-04-03T10:11:09;12.70;99.90
12885;DHT22;6510;51.362;7.370;2023-04-03T10:13:35;12.90;99.90
12885;DHT22;6510;51.362;7.370;2023-04-03T10:16:12;12.70;99.90
12885;DHT22;6510;51.362;7.370;2023-04-03T10:21:55;13.30;99.90
12885;DHT22;6510;51.362;7.370;2023-04-03T10:38:04;14.20;99.90
12885;DHT22;6510;51.362;7.370;2023-04-03T10:40:52;13.60;99.90
12885;DHT22;6510;51.362;7.370;2023-04-03T10:43:44;13.40;99.90
12885;DHT22;6510;51.362;7.370;2023-04-03T10:46:14;14.90;99.90
12885;DHT22;6510;51.362;7.370;2023-04-03T10:51:51;14.20;99.90
12885;DHT22;6510;51.362;7.370;2023-04-03T10:54:37;13.70;99.90
12885;DHT22;6510;51.362;7.370;2023-04-03T10:57:08;14.20;99.90
12885;DHT22;6510;51.362;7.370;2023-04-03T10:59:45;12.30;99.90
12885;DHT22;6510;51.362;7.370;2023-04-03T11:02:30;13.90;99.90
12885;DHT22;6510;51.362;7.370;2023-04-03T11:07:39;12.80;99.90
12885;DHT22;6510;51.362;7.370;2023-04-03T11:10:15;14.00;99.90
12885;DHT22;6510;51.362;7.370;2023-04-03T11:12:48;14.10;99.90
12885;DHT22;6510;51.362;7.370;2023-04-03T11:15:19;14.00;99.90
12885;DHT22;6510;51.362;7.370;2023-04-03T11:17:55;12.90;99.90
12885;DHT22;6510;51.362;7.370;2023-04-03T11:20:26;11.90;99.90
12885;DHT22;6510;51.362;7.370;2023-04-03T11:25:37;14.10;99.90
12885;DHT22;6510;51.362;7.370;2023-04-03T11:28:06;14.00;99.90
12885;DHT22;6510;51.362;7.370;2023-04-03T11:36:39;13.30;99.90
12885;DHT22;6510;51.362;7.370;2023-04-03T11:39:30;11.70;99.90
12885;DHT22;6510;51.362;7.370;2023-04-03T11:44:42;13.00;99.90
12885;DHT22;6510;51.362;7.370;2023-04-03T11:47:09;13.60;99.90
12885;DHT22;6510;51.362;7.370;2023-04-03T11:50:30;13.50;99.90
12885;DHT22;6510;51.362;7.370;2023-04-03T11:55:43;13.80;99.90
12885;DHT22;6510;51.362;7.370;2023-04-03T12:00:50;13.70;99.90
12885;DHT22;6510;51.362;7.370;2023-04-03T12:08:29;14.30;99.90
12885;DHT22;6510;51.362;7.370;2023-04-03T12:26:46;14.40;99.90
12885;DHT22;6510;51.362;7.370;2023-04-03T12:32:24;13.60;99.90
12885;DHT22;6510;51.362;7.370;2023-04-03T12:40:55;14.30;99.90
12885;DHT22;6510;51.362;7.370;2023-04-03T12:46:33;12.90;99.90
12885;DHT22;6510;51.362;7.370;2023-04-03T12:51:57;13.20;99.90
12885;DHT22;6510;51.362;7.370;2023-04-03T12:54:37;13.60;99.90
12885;DHT22;6510;51.362;7.370;2023-04-03T12:57:20;12.80;99.90
12885;DHT22;6510;51.362;7.370;2023-04-03T12:59:46;11.60;99.90
12885;DHT22;6510;51.362;7.370;2023-04-03T13:02:31;12.30;99.90
12885;DHT22;6510;51.362;7.370;2023-04-03T13:05:05;12.80;99.90
12885;DHT22;6510;51.362;7.370;2023-04-03T13:07:34;13.00;99.90
12885;DHT22;6510;51.362;7.370;2023-04-03T13:10:15;12.10;99.90
12885;DHT22;6510;51.362;7.370;2023-04-03T13:12:48;13.00;99.90
12885;DHT22;6510;51.362;7.370;2023-04-03T13:15:20;13.20;99.90
12885;DHT22;6510;51.362;7.370;2023-04-03T13:17:47;13.20;99.90
12885;DHT22;6510;51.362;7.370;2023-04-03T13:20:28;13.30;99.90
12885;DHT22;6510;51.362;7.370;2023-04-03T13:23:01;12.70;99.90
12885;DHT22;6510;51.362;7.370;2023-04-03T13:25:30;11.70;99.90
12885;DHT22;6510;51.362;7.370;2023-04-03T13:27:58;12.10;99.90
12885;DHT22;6510;51.362;7.370;2023-04-03T13:30:29;12.40;99.90
12885;DHT22;6510;51.362;7.370;2023-04-03T13:32:57;11.60;99.90
12885;DHT22;6510;51.362;7.370;2023-04-03T13:37:55;12.90;99.90
12885;DHT22;6510;51.362;7.370;2023-04-03T13:40:21;13.30;99.90
12885;DHT22;6510;51.362;7.370;2023-04-03T13:42:59;11.90;99.90
12885;DHT22;6510;51.362;7.370;2023-04-03T13:45:27;12.50;99.90
12885;DHT22;6510;51.362;7.370;2023-04-03T13:48:17;11.90;99.90
12885;DHT22;6510;51.362;7.370;2023-04-03T13:53:24;11.90;99.90
12885;DHT22;6510;51.362;7.370;2023-04-03T13:56:09;12.60;99.90
12885;DHT22;6510;51.362;7.370;2023-04-03T13:58:35;12.00;99.90
12885;DHT22;6510;51.362;7.370;2023-04-03T14:03:44;12.10;99.90
12885;DHT22;6510;51.362;7.370;2023-04-03T14:06:13;13.00;99.90
12885;DHT22;6510;51.362;7.370;2023-04-03T14:08:40;12.30;99.90
12885;DHT22;6510;51.362;7.370;2023-04-03T14:11:13;11.70;99.90
12885;DHT22;6510;51.362;7.370;2023-04-03T14:13:39;11.60;99.90
12885;DHT22;6510;51.362;7.370;2023-04-03T14:16:05;11.10;99.90
12885;DHT22;6510;51.362;7.370;2023-04-03T14:18:31;11.30;99.90
12885;DHT22;6510;51.362;7.370;2023-04-03T14:20:57;11.70;99.90
12885;DHT22;6510;51.362;7.370;2023-04-03T14:23:22;11.40;99.90
12885;DHT22;6510;51.362;7.370;2023-04-03T14:25:48;11.80;99.90
12885;DHT22;6510;51.362;7.370;2023-04-03T14:28:21;12.20;99.90
12885;DHT22;6510;51.362;7.370;2023-04-03T14:30:49;11.80;99.90
12885;DHT22;6510;51.362;7.370;2023-04-03T14:33:18;11.50;99.90
12885;DHT22;6510;51.362;7.370;2023-04-03T14:35:46;11.50;99.90
12885;DHT22;6510;51.362;7.370;2023-04-03T14:38:26;11.50;99.90
12885;DHT22;6510;51.362;7.370;2023-04-03T14:40:53;11.90;99.90
12885;DHT22;6510;51.362;7.370;2023-04-03T14:43:19;11.30;99.90
12885;DHT22;6510;51.362;7.370;2023-04-03T14:45:46;10.30;99.90
12885;DHT22;6510;51.362;7.370;2023-04-03T14:48:19;10.70;99.90
12885;DHT22;6510;51.362;7.370;2023-04-03T14:50:45;10.20;99.90
12885;DHT22;6510;51.362;7.370;2023-04-03T14:53:11;9.90;99.90
12885;DHT22;6510;51.362;7.370;2023-04-03T14:55:38;9.60;99.90
12885;DHT22;6510;51.362;7.370;2023-04-03T14:58:03;9.60;99.90
12885;DHT22;6510;51.362;7.370;2023-04-03T15:00:29;9.40;99.90
12885;DHT22;6510;51.362;7.370;2023-04-03T15:02:55;9.00;99.90
12885;DHT22;6510;51.362;7.370;2023-04-03T15:05:21;9.10;99.90
12885;DHT22;6510;51.362;7.370;2023-04-03T15:07:55;9.10;99.90
12885;DHT22;6510;51.362;7.370;2023-04-03T15:10:27;9.30;99.90
12885;DHT22;6510;51.362;7.370;2023-04-03T15:12:53;9.10;99.90
12885;DHT22;6510;51.362;7.370;2023-04-03T15:15:20;8.80;99.90
12885;DHT22;6510;51.362;7.370;2023-04-03T15:17:51;8.80;99.90
12885;DHT22;6510;51.362;7.370;2023-04-03T15:20:22;8.70;99.90
12885;DHT22;6510;51.362;7.370;2023-04-03T15:22:48;8.60;99.90
12885;DHT22;6510;51.362;7.370;2023-04-03T15:25:14;8.50;99.90
12885;DHT22;6510;51.362;7.370;2023-04-03T15:27:40;8.50;99.90
12885;DHT22;6510;51.362;7.370;2023-04-03T15:30:07;8.00;99.90
12885;DHT22;6510;51.362;7.370;2023-04-03T15:32:33;8.20;99.90
12885;DHT22;6510;51.362;7.370;2023-04-03T15:35:00;8.10;99.90
12885;DHT22;6510;51.362;7.370;2023-04-03T15:37:27;8.00;99.90
12885;DHT22;6510;51.362;7.370;2023-04-03T15:39:53;8.10;99.90
12885;DHT22;6510;51.362;7.370;2023-04-03T15:42:18;7.90;99.90
12885;DHT22;6510;51.362;7.370;2023-04-03T15:44:44;7.90;99.90
12885;DHT22;6510;51.362;7.370;2023-04-03T15:47:10;7.70;99.90
12885;DHT22;6510;51.362;7.370;2023-04-03T15:49:36;7.70;99.90
12885;DHT22;6510;51.362;7.370;2023-04-03T15:52:02;7.80;99.90
12885;DHT22;6510;51.362;7.370;2023-04-03T15:54:27;7.70;99.90
12885;DHT22;6510;51.362;7.370;2023-04-03T15:56:55;7.50;99.90
12885;DHT22;6510;51.362;7.370;2023-04-03T15:59:21;7.50;99.90
12885;DHT22;6510;51.362;7.370;2023-04-03T16:01:47;7.50;99.90
12885;DHT22;6510;51.362;7.370;2023-04-03T16:04:13;7.20;99.90
12885;DHT22;6510;51.362;7.370;2023-04-03T16:06:40;7.20;99.90
12885;DHT22;6510;51.362;7.370;2023-04-03T16:09:06;7.20;99.90
12885;DHT22;6510;51.362;7.370;2023-04-03T16:11:32;7.00;99.90
12885;DHT22;6510;51.362;7.370;2023-04-03T16:13:57;7.00;99.90
12885;DHT22;6510;51.362;7.370;2023-04-03T16:16:24;6.90;99.90
12885;DHT22;6510;51.362;7.370;2023-04-03T16:18:51;6.80;99.90
12885;DHT22;6510;51.362;7.370;2023-04-03T16:21:18;6.70;99.90
12885;DHT22;6510;51.362;7.370;2023-04-03T16:23:44;6.60;99.90
12885;DHT22;6510;51.362;7.370;2023-04-03T16:26:10;6.60;99.90
12885;DHT22;6510;51.362;7.370;2023-04-03T16:28:36;6.60;99.90
12885;DHT22;6510;51.362;7.370;2023-04-03T16:31:02;6.70;99.90
12885;DHT22;6510;51.362;7.370;2023-04-03T16:33:29;6.50;99.90
12885;DHT22;6510;51.362;7.370;2023-04-03T16:35:55;6.60;99.90
12885;DHT22;6510;51.362;7.370;2023-04-03T16:38:21;6.40;99.90
12885;DHT22;6510;51.362;7.370;2023-04-03T16:40:48;6.30;99.90
12885;DHT22;6510;51.362;7.370;2023-04-03T16:43:14;6.30;99.90
12885;DHT22;6510;51.362;7.370;2023-04-03T16:45:40;6.30;99.90
12885;DHT22;6510;51.362;7.370;2023-04-03T16:48:06;6.10;99.90
12885;DHT22;6510;51.362;7.370;2023-04-03T16:50:32;6.30;99.90
12885;DHT22;6510;51.362;7.370;2023-04-03T16:52:57;6.10;99.90
12885;DHT22;6510;51.362;7.370;2023-04-03T16:55:23;6.10;99.90
12885;DHT22;6510;51.362;7.370;2023-04-03T16:57:49;6.10;99.90
12885;DHT22;6510;51.362;7.370;2023-04-03T17:00:15;6.00;99.90
12885;DHT22;6510;51.362;7.370;2023-04-03T17:02:41;5.90;99.90
12885;DHT22;6510;51.362;7.370;2023-04-03T17:05:07;5.90;99.90
12885;DHT22;6510;51.362;7.370;2023-04-03T17:07:33;5.80;99.90
12885;DHT22;6510;51.362;7.370;2023-04-03T17:09:58;5.80;99.90
12885;DHT22;6510;51.362;7.370;2023-04-03T17:12:25;5.80;99.90
12885;DHT22;6510;51.362;7.370;2023-04-03T17:14:50;5.70;99.90
12885;DHT22;6510;51.362;7.370;2023-04-03T17:17:22;5.70;99.90
12885;DHT22;6510;51.362;7.370;2023-04-03T17:19:48;5.60;99.90
12885;DHT22;6510;51.362;7.370;2023-04-03T17:22:14;5.60;99.90
12885;DHT22;6510;51.362;7.370;2023-04-03T17:24:41;5.60;99.90
12885;DHT22;6510;51.362;7.370;2023-04-03T17:27:07;5.40;99.90
12885;DHT22;6510;51.362;7.370;2023-04-03T17:29:33;5.40;99.90
12885;DHT22;6510;51.362;7.370;2023-04-03T17:31:58;5.30;99.90
12885;DHT22;6510;51.362;7.370;2023-04-03T17:34:24;5.30;99.90
12885;DHT22;6510;51.362;7.370;2023-04-03T17:36:50;5.20;99.90
12885;DHT22;6510;51.362;7.370;2023-04-03T17:39:15;5.20;99.90